createdAt,value
2022-11-18T05:00:26.237Z,1.00
2022-11-18T05:02:53.528Z,1.02
2022-11-18T05:05:20.691Z,1.01
2022-11-18T05:07:47.918Z,0.99
2022-11-18T05:10:16.173Z,0.97
2022-11-18T05:12:50.350Z,0.95
2022-11-18T05:15:24.461Z,0.91
2022-11-18T05:17:52.033Z,0.90
2022-11-18T05:20:19.553Z,0.93
2022-11-18T05:22:47.343Z,0.93
2022-11-18T05:25:14.593Z,0.96
2022-11-18T05:27:41.824Z,0.98
2022-11-18T05:30:10.465Z,0.98
2022-11-18T05:32:38.318Z,1.00
2022-11-18T05:35:06.548Z,0.99
2022-11-18T05:37:34.104Z,0.97
2022-11-18T05:40:02.198Z,0.97
2022-11-18T05:42:49.217Z,0.96
2022-11-18T05:45:17.010Z,0.96
2022-11-18T05:48:04.973Z,0.97
2022-11-18T05:50:38.393Z,0.99
2022-11-18T05:53:05.782Z,0.98
2022-11-18T05:55:46.608Z,0.95
2022-11-18T05:58:14.280Z,0.95
2022-11-18T06:00:42.922Z,0.94
2022-11-18T06:03:19.014Z,0.96
2022-11-18T06:05:47.711Z,0.94
2022-11-18T06:08:19.277Z,0.89
2022-11-18T06:10:49.184Z,0.87
2022-11-18T06:13:26.993Z,0.85
2022-11-18T06:15:54.572Z,0.82
2022-11-18T06:18:29.670Z,0.80
2022-11-18T06:21:00.601Z,0.76
2022-11-18T06:23:31.875Z,0.74
2022-11-18T06:25:59.597Z,0.76
2022-11-18T06:28:28.657Z,0.77
2022-11-18T06:30:56.487Z,0.80
2022-11-18T06:33:24.523Z,0.81
2022-11-18T06:35:52.763Z,0.77
2022-11-18T06:38:23.912Z,0.75
2022-11-18T06:40:55.057Z,0.74
2022-11-18T06:43:41.188Z,0.66
2022-11-18T06:46:34.684Z,0.60
2022-11-18T06:49:03.283Z,0.56
2022-11-18T06:51:30.997Z,0.52
2022-11-18T06:53:58.746Z,0.47
2022-11-18T06:56:26.703Z,0.47
2022-11-18T06:58:56.360Z,0.46
2022-11-18T07:01:29.547Z,0.48
2022-11-18T07:03:59.662Z,0.49
2022-11-18T07:06:29.889Z,0.48
2022-11-18T07:09:00.069Z,0.41
2022-11-18T07:11:28.402Z,0.35
2022-11-18T07:13:56.354Z,0.33
2022-11-18T07:16:26.325Z,0.33
2022-11-18T07:18:56.231Z,0.33
2022-11-18T07:21:26.964Z,0.34
2022-11-18T07:23:56.742Z,0.36
2022-11-18T07:26:25.350Z,0.37
2022-11-18T07:28:54.763Z,0.38
2022-11-18T07:31:22.441Z,0.42
2022-11-18T07:33:50.606Z,0.45
2022-11-18T07:36:21.101Z,0.48
2022-11-18T07:38:53.630Z,0.51
2022-11-18T07:41:24.106Z,0.56
2022-11-18T07:44:00.049Z,0.61
2022-11-18T07:46:34.796Z,0.64
2022-11-18T07:49:04.945Z,0.70
2022-11-18T07:51:36.141Z,0.74
2022-11-18T07:54:12.447Z,0.81
2022-11-18T07:56:40.626Z,0.88
2022-11-18T07:59:08.873Z,0.94
2022-11-18T08:01:37.468Z,0.96
2022-11-18T08:04:08.341Z,1.01
2022-11-18T08:06:36.381Z,1.08
2022-11-18T08:09:05.889Z,1.14
2022-11-18T08:11:34.581Z,1.20
2022-11-18T08:14:02.612Z,1.24
2022-11-18T08:16:30.344Z,1.30
2022-11-18T08:19:00.903Z,1.35
2022-11-18T08:21:29.016Z,1.37
2022-11-18T08:23:58.379Z,1.38
2022-11-18T08:26:27.866Z,1.39
2022-11-18T08:28:55.687Z,1.39
2022-11-18T08:31:26.107Z,1.41
2022-11-18T08:34:05.115Z,1.41
2022-11-18T08:36:35.454Z,1.41
2022-11-18T08:39:06.155Z,1.41
2022-11-18T08:41:37.069Z,1.43
2022-11-18T08:44:05.656Z,1.49
2022-11-18T08:46:33.057Z,1.52
2022-11-18T08:49:01.738Z,1.58
2022-11-18T08:51:29.589Z,1.62
2022-11-18T08:53:57.064Z,1.65
2022-11-18T08:56:25.651Z,1.69
2022-11-18T08:58:53.741Z,1.71
2022-11-18T09:01:21.333Z,1.75
2022-11-18T09:03:49.695Z,1.75
2022-11-18T09:06:23.229Z,1.74
2022-11-18T09:08:51.257Z,1.70
2022-11-18T09:11:22.128Z,1.67
2022-11-18T09:16:45.544Z,1.61
2022-11-18T09:22:03.860Z,1.66
2022-11-18T09:24:32.145Z,1.63
2022-11-18T09:27:03.475Z,1.60
2022-11-18T09:29:31.510Z,1.60
2022-11-18T09:32:02.556Z,1.63
2022-11-18T09:34:30.589Z,1.66
2022-11-18T09:36:58.489Z,1.67
2022-11-18T09:39:26.835Z,1.68
2022-11-18T09:42:07.426Z,1.66
2022-11-18T09:44:54.277Z,1.68
2022-11-18T09:47:33.183Z,1.68
2022-11-18T09:50:26.768Z,1.71
2022-11-18T09:53:04.880Z,1.77
2022-11-18T09:55:35.418Z,1.83
2022-11-18T09:58:05.438Z,1.89
2022-11-18T10:00:34.601Z,1.89
2022-11-18T10:03:13.064Z,1.89
2022-11-18T10:05:59.657Z,1.91
2022-11-18T10:08:46.537Z,1.94
2022-11-18T10:11:24.764Z,1.98
2022-11-18T10:14:08.039Z,2.02
2022-11-18T10:16:57.705Z,2.05
2022-11-18T10:19:53.347Z,2.05
2022-11-18T10:22:28.295Z,2.05
2022-11-18T10:25:02.295Z,2.11
2022-11-18T10:27:43.750Z,2.15
2022-11-18T10:30:21.123Z,2.18
2022-11-18T10:33:24.084Z,2.19
2022-11-18T10:36:12.905Z,2.15
2022-11-18T10:38:43.274Z,2.17
2022-11-18T10:41:22.498Z,2.20
2022-11-18T10:43:58.264Z,2.19
2022-11-18T10:46:35.981Z,2.17
2022-11-18T10:49:19.794Z,2.19
2022-11-18T10:52:09.527Z,2.18
2022-11-18T10:54:43.752Z,2.15
2022-11-18T10:57:25.967Z,2.14
2022-11-18T10:59:58.253Z,2.16
2022-11-18T11:05:39.852Z,2.20
2022-11-18T11:08:39.329Z,2.21
2022-11-18T11:11:27.096Z,2.23
2022-11-18T11:14:37.965Z,2.23
2022-11-18T11:17:43.358Z,2.20
2022-11-18T11:20:18.915Z,2.13
2022-11-18T11:22:47.651Z,2.13
2022-11-18T11:25:24.977Z,2.14
2022-11-18T11:28:14.755Z,2.13
2022-11-18T11:31:24.847Z,2.12
2022-11-18T11:34:29.610Z,2.14
2022-11-18T11:37:04.968Z,2.11
2022-11-18T11:40:00.344Z,2.04
2022-11-18T11:42:48.725Z,1.95
2022-11-18T11:45:37.065Z,1.90
2022-11-18T11:48:14.321Z,1.85
2022-11-18T11:51:01.979Z,1.78
2022-11-18T11:53:45.415Z,1.70
2022-11-18T11:56:26.026Z,1.63
2022-11-18T11:59:13.625Z,1.57
2022-11-18T12:02:03.575Z,1.54
2022-11-18T12:04:31.483Z,1.59
2022-11-18T12:07:00.899Z,1.62
2022-11-18T12:09:35.458Z,1.67
2022-11-18T12:12:32.796Z,1.76
2022-11-18T12:15:39.405Z,1.83
2022-11-18T12:18:33.842Z,1.85
2022-11-18T12:21:00.981Z,1.81
2022-11-18T12:23:30.874Z,1.78
2022-11-18T12:26:04.661Z,1.75
2022-11-18T12:28:42.848Z,1.73
2022-11-18T12:31:19.689Z,1.67
2022-11-18T12:33:59.143Z,1.62
2022-11-18T12:36:29.357Z,1.55
2022-11-18T12:38:58.444Z,1.49
2022-11-18T12:42:00.562Z,1.44
2022-11-18T12:44:30.459Z,1.44
2022-11-18T12:47:00.170Z,1.46
2022-11-18T12:49:28.058Z,1.44
2022-11-18T12:52:00.902Z,1.45
2022-11-18T12:54:57.256Z,1.46
2022-11-18T12:57:30.721Z,1.43
2022-11-18T12:59:58.858Z,1.39
2022-11-18T13:02:31.088Z,1.34
2022-11-18T13:05:13.794Z,1.32
2022-11-18T13:08:11.985Z,1.31
2022-11-18T13:11:15.041Z,1.29
2022-11-18T13:13:44.667Z,1.25
2022-11-18T13:16:43.308Z,1.22
2022-11-18T13:19:22.696Z,1.18
2022-11-18T13:22:17.305Z,1.14
2022-11-18T13:24:51.309Z,1.13
2022-11-18T13:27:37.831Z,1.14
2022-11-18T13:30:11.914Z,1.16
2022-11-18T13:32:49.242Z,1.17
2022-11-18T13:35:22.012Z,1.16
2022-11-18T13:38:01.814Z,1.17
2022-11-18T13:41:08.917Z,1.20
2022-11-18T13:43:37.587Z,1.21
2022-11-18T13:46:20.688Z,1.22
2022-11-18T13:48:55.175Z,1.20
2022-11-18T13:51:24.500Z,1.15
2022-11-18T13:53:52.171Z,1.12
2022-11-18T13:56:30.269Z,1.10
2022-11-18T13:59:16.835Z,1.08
2022-11-18T14:01:59.846Z,1.05
2022-11-18T14:04:31.236Z,1.02
2022-11-18T14:07:24.172Z,1.00
2022-11-18T14:10:01.675Z,0.97
2022-11-18T14:12:48.752Z,0.95
2022-11-18T14:15:43.232Z,0.88
2022-11-18T14:18:31.845Z,0.84
2022-11-18T14:21:05.581Z,0.84
2022-11-18T14:23:37.613Z,0.85
2022-11-18T14:26:07.639Z,0.85
2022-11-18T14:28:37.819Z,0.87
2022-11-18T14:31:16.100Z,0.89
2022-11-18T14:34:03.336Z,0.92
2022-11-18T14:36:30.924Z,0.94
2022-11-18T14:39:19.855Z,0.96
2022-11-18T14:41:49.413Z,0.99
2022-11-18T14:44:18.899Z,1.01
2022-11-18T14:46:58.561Z,1.02
2022-11-18T14:49:28.116Z,1.04
2022-11-18T14:51:56.297Z,1.04
2022-11-18T14:54:27.913Z,1.07
2022-11-18T14:57:00.497Z,1.10
2022-11-18T14:59:28.655Z,1.09
2022-11-18T15:01:57.422Z,1.08
2022-11-18T15:04:25.860Z,1.08
2022-11-18T15:06:53.461Z,1.03
2022-11-18T15:09:21.602Z,0.97
2022-11-18T15:11:49.479Z,0.93
2022-11-18T15:14:17.946Z,0.91
2022-11-18T15:17:30.152Z,0.88
2022-11-18T15:20:01.348Z,0.78
2022-11-18T15:22:28.592Z,0.69
2022-11-18T15:24:56.250Z,0.57
2022-11-18T15:27:23.479Z,0.47
2022-11-18T15:29:50.773Z,0.43
2022-11-18T15:32:17.985Z,0.38
2022-11-18T15:34:45.701Z,0.33
2022-11-18T15:37:13.389Z,0.28
2022-11-18T15:39:40.724Z,0.23
2022-11-18T15:42:08.190Z,0.16
2022-11-18T15:44:35.415Z,0.11
2022-11-18T15:47:03.031Z,0.07
2022-11-18T15:49:30.792Z,-0.00
2022-11-18T15:51:58.066Z,-0.07
2022-11-18T15:54:25.693Z,-0.13
2022-11-18T15:56:52.968Z,-0.21
2022-11-18T15:59:20.387Z,-0.27
2022-11-18T16:01:49.585Z,-0.32
2022-11-18T16:04:19.559Z,-0.36
2022-11-18T16:06:47.733Z,-0.39
2022-11-18T16:09:16.686Z,-0.44
2022-11-18T16:12:03.172Z,-0.47
2022-11-18T16:14:30.631Z,-0.49
2022-11-18T16:16:57.943Z,-0.51
2022-11-18T16:19:26.922Z,-0.52
2022-11-18T16:21:57.758Z,-0.56
2022-11-18T16:24:28.925Z,-0.58
2022-11-18T16:26:57.167Z,-0.61
2022-11-18T16:29:25.055Z,-0.64
2022-11-18T16:31:54.977Z,-0.69
2022-11-18T16:34:28.176Z,-0.73
2022-11-18T16:37:02.555Z,-0.77
2022-11-18T16:39:33.248Z,-0.79
2022-11-18T16:42:08.459Z,-0.81
2022-11-18T16:44:37.805Z,-0.80
2022-11-18T16:47:12.482Z,-0.82
2022-11-18T16:49:43.332Z,-0.84
2022-11-18T16:52:11.632Z,-0.90
2022-11-18T16:54:44.660Z,-0.94
2022-11-18T16:57:17.636Z,-0.97
2022-11-18T16:59:45.678Z,-0.97
2022-11-18T17:02:14.319Z,-0.97
2022-11-18T17:04:42.716Z,-0.99
2022-11-18T17:07:10.074Z,-1.02
2022-11-18T17:09:38.094Z,-1.05
2022-11-18T17:12:06.157Z,-1.06
2022-11-18T17:14:34.446Z,-1.08
2022-11-18T17:17:02.405Z,-1.10
2022-11-18T17:19:30.605Z,-1.13
2022-11-18T17:21:59.083Z,-1.12
2022-11-18T17:24:27.561Z,-1.10
2022-11-18T17:26:55.874Z,-1.10
2022-11-18T17:29:23.424Z,-1.13
2022-11-18T17:31:50.636Z,-1.17
2022-11-18T17:34:19.620Z,-1.15
2022-11-18T17:36:47.993Z,-1.11
2022-11-18T17:39:18.042Z,-1.09
2022-11-18T17:42:04.843Z,-1.08
2022-11-18T17:44:33.185Z,-1.05
2022-11-18T17:47:03.365Z,-1.02
2022-11-18T17:49:33.895Z,-0.94
2022-11-18T17:52:01.536Z,-0.88
2022-11-18T17:54:28.814Z,-0.82
2022-11-18T17:56:56.129Z,-0.77
2022-11-18T17:59:23.988Z,-0.75
2022-11-18T18:01:57.550Z,-0.70
2022-11-18T18:04:26.537Z,-0.62
2022-11-18T18:06:55.794Z,-0.58
2022-11-18T18:09:30.557Z,-0.57
2022-11-18T18:12:22.968Z,-0.54
2022-11-18T18:14:53.475Z,-0.58
2022-11-18T18:17:23.694Z,-0.60
2022-11-18T18:19:51.033Z,-0.59
2022-11-18T18:22:19.413Z,-0.61
2022-11-18T18:24:47.170Z,-0.63
2022-11-18T18:27:14.642Z,-0.63
2022-11-18T18:29:41.933Z,-0.61
2022-11-18T18:32:09.085Z,-0.60
2022-11-18T18:34:36.661Z,-0.60
2022-11-18T18:37:05.083Z,-0.57
2022-11-18T18:39:32.890Z,-0.58
2022-11-18T18:42:00.681Z,-0.61
2022-11-18T18:44:48.034Z,-0.63
2022-11-18T18:47:15.475Z,-0.67
2022-11-18T18:49:43.006Z,-0.73
2022-11-18T18:52:11.702Z,-0.77
2022-11-18T18:54:43.072Z,-0.77
2022-11-18T18:57:14.634Z,-0.80
2022-11-18T18:59:46.590Z,-0.89
2022-11-18T19:02:14.366Z,-0.98
2022-11-18T19:04:42.957Z,-1.05
2022-11-18T19:07:11.809Z,-1.08
2022-11-18T19:09:44.692Z,-1.11
2022-11-18T19:16:12.373Z,-1.13
2022-11-18T19:18:41.340Z,-1.14
2022-11-18T19:21:10.957Z,-1.16
2022-11-18T19:23:40.740Z,-1.18
2022-11-18T19:26:13.972Z,-1.21
2022-11-18T19:28:41.517Z,-1.29
2022-11-18T19:31:09.274Z,-1.35
2022-11-18T19:33:37.733Z,-1.36
2022-11-18T19:36:12.337Z,-1.37
2022-11-18T19:38:41.750Z,-1.40
2022-11-18T19:41:11.367Z,-1.44
2022-11-18T19:43:39.301Z,-1.47
2022-11-18T19:46:11.751Z,-1.52
2022-11-18T19:48:40.974Z,-1.54
2022-11-18T19:51:15.827Z,-1.57
2022-11-18T19:53:46.778Z,-1.61
2022-11-18T19:56:22.017Z,-1.61
2022-11-18T19:58:57.171Z,-1.62
2022-11-18T20:01:28.876Z,-1.63
2022-11-18T20:03:58.917Z,-1.68
2022-11-18T20:06:28.123Z,-1.75
2022-11-18T20:08:58.274Z,-1.74
2022-11-18T20:11:26.733Z,-1.75
2022-11-18T20:13:54.299Z,-1.74
2022-11-18T20:16:23.785Z,-1.72
2022-11-18T20:19:02.903Z,-1.68
2022-11-18T20:21:34.421Z,-1.66
2022-11-18T20:24:04.709Z,-1.69
2022-11-18T20:26:37.573Z,-1.69
2022-11-18T20:29:07.381Z,-1.69
2022-11-18T20:31:38.966Z,-1.71
2022-11-18T20:34:06.327Z,-1.73
2022-11-18T20:36:36.324Z,-1.75
2022-11-18T20:39:07.045Z,-1.76
2022-11-18T20:41:35.252Z,-1.79
2022-11-18T20:44:03.952Z,-1.84
2022-11-18T20:46:34.688Z,-1.86
2022-11-18T20:49:02.564Z,-1.87
2022-11-18T20:51:30.443Z,-1.88
2022-11-18T20:53:59.992Z,-1.89
2022-11-18T20:56:28.243Z,-1.93
2022-11-18T20:58:58.603Z,-1.95
2022-11-18T21:01:29.595Z,-1.91
2022-11-18T21:04:03.735Z,-1.88
2022-11-18T21:06:32.938Z,-1.89
2022-11-18T21:09:05.367Z,-1.93
2022-11-18T21:11:41.970Z,-1.97
2022-11-18T21:14:24.711Z,-1.95
2022-11-18T21:17:03.225Z,-1.97
2022-11-18T21:19:33.483Z,-2.03
2022-11-18T21:22:00.660Z,-2.03
2022-11-18T21:24:32.894Z,-1.98
2022-11-18T21:27:02.784Z,-1.88
2022-11-18T21:29:32.646Z,-1.83
2022-11-18T21:32:03.404Z,-1.76
2022-11-18T21:34:34.232Z,-1.68
2022-11-18T21:37:01.750Z,-1.63
2022-11-18T21:39:29.129Z,-1.61
2022-11-18T21:41:57.691Z,-1.56
2022-11-18T21:44:28.734Z,-1.55
2022-11-18T21:46:57.398Z,-1.50
2022-11-18T21:49:24.803Z,-1.38
2022-11-18T21:51:52.593Z,-1.27
2022-11-18T21:54:20.040Z,-1.19
2022-11-18T21:56:48.109Z,-1.14
2022-11-18T21:59:16.550Z,-1.16
2022-11-18T22:01:44.831Z,-1.32
2022-11-18T22:04:33.088Z,-1.51
2022-11-18T22:07:01.113Z,-1.47
2022-11-18T22:09:34.675Z,-1.37
2022-11-18T22:12:06.384Z,-1.25
2022-11-18T22:14:33.846Z,-1.20
2022-11-18T22:17:02.132Z,-1.18
2022-11-18T22:19:30.636Z,-1.13
2022-11-18T22:21:57.882Z,-1.11
2022-11-18T22:24:26.009Z,-1.08
2022-11-18T22:26:53.431Z,-1.04
2022-11-18T22:29:21.174Z,-1.08
2022-11-18T22:31:48.864Z,-1.18
2022-11-18T22:34:16.293Z,-1.25
2022-11-18T22:36:44.212Z,-1.20
2022-11-18T22:39:11.561Z,-1.10
2022-11-18T22:41:58.553Z,-1.01
2022-11-18T22:44:27.619Z,-0.98
2022-11-18T22:46:55.534Z,-0.99
2022-11-18T22:49:24.314Z,-0.97
2022-11-18T22:51:52.324Z,-0.94
2022-11-18T22:57:07.205Z,-0.97
2022-11-18T22:59:34.965Z,-0.97
2022-11-18T23:02:05.314Z,-0.96
2022-11-18T23:04:33.191Z,-0.98
2022-11-18T23:07:00.985Z,-1.01
2022-11-18T23:09:29.005Z,-1.01
2022-11-18T23:12:16.043Z,-1.05
2022-11-18T23:14:43.996Z,-1.16
2022-11-18T23:17:11.864Z,-1.23
2022-11-18T23:19:44.314Z,-1.25
2022-11-18T23:22:13.241Z,-1.24
2022-11-18T23:24:40.953Z,-1.22
2022-11-18T23:27:09.242Z,-1.29
2022-11-18T23:29:37.126Z,-1.39
2022-11-18T23:32:05.873Z,-1.40
2022-11-18T23:34:33.842Z,-1.39
2022-11-18T23:37:01.844Z,-1.37
2022-11-18T23:39:29.798Z,-1.33
2022-11-18T23:41:57.424Z,-1.22
2022-11-18T23:44:45.499Z,-1.13
2022-11-18T23:47:13.978Z,-1.09
2022-11-18T23:49:42.080Z,-1.10
2022-11-18T23:52:09.995Z,-1.11
2022-11-18T23:54:37.842Z,-1.13
2022-11-18T23:57:05.704Z,-1.16
2022-11-18T23:59:34.146Z,-1.16
